sensor_id;sensor_type;location;lat;lon;timestamp;P1;durP1;ratioP1;P2;durP2;ratioP2
36189;SDS011;22232;50.914;13.858;2023-03-23T00:01:21;1.70;;;0.90;;
36189;SDS011;22232;50.914;13.858;2023-03-23T00:03:49;2.83;;;0.82;;
36189;SDS011;22232;50.914;13.858;2023-03-23T00:06:17;2.33;;;0.90;;
36189;SDS011;22232;50.914;13.858;2023-03-23T00:08:45;1.35;;;0.88;;
36189;SDS011;22232;50.914;13.858;2023-03-23T00:11:14;1.35;;;0.85;;
36189;SDS011;22232;50.914;13.858;2023-03-23T00:13:41;2.47;;;0.90;;
36189;SDS011;22232;50.914;13.858;2023-03-23T00:16:09;0.88;;;0.77;;
36189;SDS011;22232;50.914;13.858;2023-03-23T00:18:46;2.45;;;0.90;;
36189;SDS011;22232;50.914;13.858;2023-03-23T00:21:15;2.38;;;0.90;;
36189;SDS011;22232;50.914;13.858;2023-03-23T00:23:41;3.47;;;0.70;;
36189;SDS011;22232;50.914;13.858;2023-03-23T00:26:11;1.50;;;0.70;;
36189;SDS011;22232;50.914;13.858;2023-03-23T00:28:38;2.10;;;1.00;;
36189;SDS011;22232;50.914;13.858;2023-03-23T00:31:06;1.02;;;0.70;;
36189;SDS011;22232;50.914;13.858;2023-03-23T00:33:35;2.13;;;0.98;;
36189;SDS011;22232;50.914;13.858;2023-03-23T00:38:35;1.38;;;0.93;;
36189;SDS011;22232;50.914;13.858;2023-03-23T00:41:01;1.30;;;1.10;;
36189;SDS011;22232;50.914;13.858;2023-03-23T00:43:31;1.50;;;1.05;;
36189;SDS011;22232;50.914;13.858;2023-03-23T00:46:02;1.35;;;0.75;;
36189;SDS011;22232;50.914;13.858;2023-03-23T00:48:34;1.42;;;0.98;;
36189;SDS011;22232;50.914;13.858;2023-03-23T00:51:02;4.68;;;1.17;;
36189;SDS011;22232;50.914;13.858;2023-03-23T00:53:32;1.67;;;0.63;;
36189;SDS011;22232;50.914;13.858;2023-03-23T00:55:59;1.17;;;0.88;;
36189;SDS011;22232;50.914;13.858;2023-03-23T00:58:26;0.95;;;0.60;;
36189;SDS011;22232;50.914;13.858;2023-03-23T01:00:52;1.20;;;0.80;;
36189;SDS011;22232;50.914;13.858;2023-03-23T01:03:19;2.80;;;0.90;;
36189;SDS011;22232;50.914;13.858;2023-03-23T01:05:45;1.75;;;0.75;;
36189;SDS011;22232;50.914;13.858;2023-03-23T01:08:17;2.55;;;0.80;;
36189;SDS011;22232;50.914;13.858;2023-03-23T01:10:45;1.00;;;0.80;;
36189;SDS011;22232;50.914;13.858;2023-03-23T01:13:12;1.75;;;1.02;;
36189;SDS011;22232;50.914;13.858;2023-03-23T01:15:39;0.50;;;0.50;;
36189;SDS011;22232;50.914;13.858;2023-03-23T01:18:05;1.85;;;0.70;;
36189;SDS011;22232;50.914;13.858;2023-03-23T01:20:32;1.00;;;0.60;;
36189;SDS011;22232;50.914;13.858;2023-03-23T01:22:58;1.17;;;0.68;;
36189;SDS011;22232;50.914;13.858;2023-03-23T01:25:29;0.45;;;0.45;;
36189;SDS011;22232;50.914;13.858;2023-03-23T01:27:57;0.80;;;0.80;;
36189;SDS011;22232;50.914;13.858;2023-03-23T01:30:24;2.40;;;0.80;;
36189;SDS011;22232;50.914;13.858;2023-03-23T01:32:51;0.93;;;0.70;;
36189;SDS011;22232;50.914;13.858;2023-03-23T01:35:18;0.88;;;0.60;;
36189;SDS011;22232;50.914;13.858;2023-03-23T01:37:46;1.95;;;0.65;;
36189;SDS011;22232;50.914;13.858;2023-03-23T01:40:14;0.50;;;0.50;;
36189;SDS011;22232;50.914;13.858;2023-03-23T01:42:42;0.50;;;0.50;;
36189;SDS011;22232;50.914;13.858;2023-03-23T01:47:59;0.98;;;0.80;;
36189;SDS011;22232;50.914;13.858;2023-03-23T01:50:34;0.77;;;0.77;;
36189;SDS011;22232;50.914;13.858;2023-03-23T01:53:04;3.22;;;0.80;;
36189;SDS011;22232;50.914;13.858;2023-03-23T01:55:36;1.63;;;0.80;;
36189;SDS011;22232;50.914;13.858;2023-03-23T01:58:07;1.00;;;0.70;;
36189;SDS011;22232;50.914;13.858;2023-03-23T02:00:37;0.75;;;0.73;;
36189;SDS011;22232;50.914;13.858;2023-03-23T02:03:09;0.93;;;0.70;;
36189;SDS011;22232;50.914;13.858;2023-03-23T02:05:40;0.85;;;0.40;;
36189;SDS011;22232;50.914;13.858;2023-03-23T02:08:17;1.15;;;0.55;;
36189;SDS011;22232;50.914;13.858;2023-03-23T02:10:45;1.35;;;0.47;;
36189;SDS011;22232;50.914;13.858;2023-03-23T02:13:12;1.73;;;0.75;;
36189;SDS011;22232;50.914;13.858;2023-03-23T02:15:47;2.33;;;0.70;;
36189;SDS011;22232;50.914;13.858;2023-03-23T02:20:59;1.27;;;0.70;;
36189;SDS011;22232;50.914;13.858;2023-03-23T02:28:52;3.40;;;0.70;;
36189;SDS011;22232;50.914;13.858;2023-03-23T02:36:37;1.25;;;0.77;;
36189;SDS011;22232;50.914;13.858;2023-03-23T02:39:12;1.35;;;0.73;;
36189;SDS011;22232;50.914;13.858;2023-03-23T02:41:46;1.15;;;0.65;;
36189;SDS011;22232;50.914;13.858;2023-03-23T02:44:17;1.20;;;0.70;;
36189;SDS011;22232;50.914;13.858;2023-03-23T02:46:44;0.98;;;0.93;;
36189;SDS011;22232;50.914;13.858;2023-03-23T02:49:11;1.73;;;0.75;;
36189;SDS011;22232;50.914;13.858;2023-03-23T02:51:41;1.60;;;0.90;;
36189;SDS011;22232;50.914;13.858;2023-03-23T02:54:12;1.23;;;0.90;;
36189;SDS011;22232;50.914;13.858;2023-03-23T02:56:41;1.33;;;0.70;;
36189;SDS011;22232;50.914;13.858;2023-03-23T02:59:16;1.23;;;1.05;;
36189;SDS011;22232;50.914;13.858;2023-03-23T03:04:13;2.00;;;0.90;;
36189;SDS011;22232;50.914;13.858;2023-03-23T03:09:18;2.88;;;0.90;;
36189;SDS011;22232;50.914;13.858;2023-03-23T03:11:52;2.42;;;1.02;;
36189;SDS011;22232;50.914;13.858;2023-03-23T03:14:33;1.67;;;1.15;;
36189;SDS011;22232;50.914;13.858;2023-03-23T03:17:19;1.23;;;0.85;;
36189;SDS011;22232;50.914;13.858;2023-03-23T03:19:53;1.75;;;1.10;;
36189;SDS011;22232;50.914;13.858;2023-03-23T03:22:26;2.05;;;1.30;;
36189;SDS011;22232;50.914;13.858;2023-03-23T03:24:58;3.80;;;1.60;;
36189;SDS011;22232;50.914;13.858;2023-03-23T03:27:26;2.20;;;1.45;;
36189;SDS011;22232;50.914;13.858;2023-03-23T03:30:05;2.10;;;1.20;;
36189;SDS011;22232;50.914;13.858;2023-03-23T03:32:43;3.25;;;1.42;;
36189;SDS011;22232;50.914;13.858;2023-03-23T03:35:15;5.05;;;1.73;;
36189;SDS011;22232;50.914;13.858;2023-03-23T03:37:43;2.10;;;1.45;;
36189;SDS011;22232;50.914;13.858;2023-03-23T03:40:12;1.67;;;1.10;;
36189;SDS011;22232;50.914;13.858;2023-03-23T03:42:44;3.15;;;1.60;;
36189;SDS011;22232;50.914;13.858;2023-03-23T03:45:13;3.67;;;1.42;;
36189;SDS011;22232;50.914;13.858;2023-03-23T03:47:42;1.80;;;1.50;;
36189;SDS011;22232;50.914;13.858;2023-03-23T03:50:08;1.77;;;1.25;;
36189;SDS011;22232;50.914;13.858;2023-03-23T03:52:36;2.50;;;1.45;;
36189;SDS011;22232;50.914;13.858;2023-03-23T03:55:05;3.78;;;1.55;;
36189;SDS011;22232;50.914;13.858;2023-03-23T03:57:34;4.38;;;2.00;;
36189;SDS011;22232;50.914;13.858;2023-03-23T04:00:04;5.20;;;1.48;;
36189;SDS011;22232;50.914;13.858;2023-03-23T04:02:45;5.65;;;1.67;;
36189;SDS011;22232;50.914;13.858;2023-03-23T04:05:31;2.40;;;1.33;;
36189;SDS011;22232;50.914;13.858;2023-03-23T04:07:59;3.25;;;1.33;;
36189;SDS011;22232;50.914;13.858;2023-03-23T04:10:29;2.63;;;1.42;;
36189;SDS011;22232;50.914;13.858;2023-03-23T04:12:57;2.90;;;1.58;;
36189;SDS011;22232;50.914;13.858;2023-03-23T04:15:46;2.65;;;1.55;;
36189;SDS011;22232;50.914;13.858;2023-03-23T04:18:13;3.05;;;1.60;;
36189;SDS011;22232;50.914;13.858;2023-03-23T04:20:44;3.97;;;1.75;;
36189;SDS011;22232;50.914;13.858;2023-03-23T04:23:15;4.55;;;1.92;;
36189;SDS011;22232;50.914;13.858;2023-03-23T04:25:47;6.93;;;1.80;;
36189;SDS011;22232;50.914;13.858;2023-03-23T04:28:15;3.40;;;1.50;;
36189;SDS011;22232;50.914;13.858;2023-03-23T04:31:04;5.35;;;1.90;;
36189;SDS011;22232;50.914;13.858;2023-03-23T04:33:30;4.07;;;1.70;;
36189;SDS011;22232;50.914;13.858;2023-03-23T04:35:59;4.25;;;1.80;;
36189;SDS011;22232;50.914;13.858;2023-03-23T04:38:36;3.28;;;1.55;;
36189;SDS011;22232;50.914;13.858;2023-03-23T04:41:11;3.40;;;1.40;;
36189;SDS011;22232;50.914;13.858;2023-03-23T04:43:56;2.55;;;1.48;;
36189;SDS011;22232;50.914;13.858;2023-03-23T04:46:34;4.15;;;1.30;;
36189;SDS011;22232;50.914;13.858;2023-03-23T04:49:06;1.95;;;1.23;;
36189;SDS011;22232;50.914;13.858;2023-03-23T04:51:36;2.75;;;1.40;;
36189;SDS011;22232;50.914;13.858;2023-03-23T04:54:34;2.50;;;1.40;;
36189;SDS011;22232;50.914;13.858;2023-03-23T04:57:01;3.13;;;1.67;;
36189;SDS011;22232;50.914;13.858;2023-03-23T04:59:27;2.63;;;1.38;;
36189;SDS011;22232;50.914;13.858;2023-03-23T05:02:25;4.35;;;1.50;;
36189;SDS011;22232;50.914;13.858;2023-03-23T05:04:58;2.10;;;1.45;;
36189;SDS011;22232;50.914;13.858;2023-03-23T05:07:27;4.97;;;1.75;;
36189;SDS011;22232;50.914;13.858;2023-03-23T05:09:55;3.17;;;1.80;;
36189;SDS011;22232;50.914;13.858;2023-03-23T05:12:25;2.55;;;1.63;;
36189;SDS011;22232;50.914;13.858;2023-03-23T05:15:02;2.05;;;1.17;;
36189;SDS011;22232;50.914;13.858;2023-03-23T05:17:31;2.50;;;1.73;;
36189;SDS011;22232;50.914;13.858;2023-03-23T05:20:02;4.53;;;1.63;;
36189;SDS011;22232;50.914;13.858;2023-03-23T05:22:43;2.53;;;1.60;;
36189;SDS011;22232;50.914;13.858;2023-03-23T05:25:12;2.67;;;1.40;;
36189;SDS011;22232;50.914;13.858;2023-03-23T05:27:46;4.22;;;1.70;;
36189;SDS011;22232;50.914;13.858;2023-03-23T05:30:30;2.63;;;1.63;;
36189;SDS011;22232;50.914;13.858;2023-03-23T05:32:57;2.65;;;1.25;;
36189;SDS011;22232;50.914;13.858;2023-03-23T05:35:45;4.22;;;1.50;;
36189;SDS011;22232;50.914;13.858;2023-03-23T05:38:14;1.20;;;1.10;;
36189;SDS011;22232;50.914;13.858;2023-03-23T05:40:43;3.25;;;1.38;;
36189;SDS011;22232;50.914;13.858;2023-03-23T05:43:15;1.35;;;1.17;;
36189;SDS011;22232;50.914;13.858;2023-03-23T05:46:11;2.70;;;1.35;;
36189;SDS011;22232;50.914;13.858;2023-03-23T05:48:39;4.53;;;1.63;;
36189;SDS011;22232;50.914;13.858;2023-03-23T05:51:10;1.92;;;1.27;;
36189;SDS011;22232;50.914;13.858;2023-03-23T05:53:40;1.63;;;1.05;;
36189;SDS011;22232;50.914;13.858;2023-03-23T05:56:08;3.40;;;1.30;;
36189;SDS011;22232;50.914;13.858;2023-03-23T05:58:49;1.45;;;1.10;;
36189;SDS011;22232;50.914;13.858;2023-03-23T06:01:15;3.10;;;1.40;;
36189;SDS011;22232;50.914;13.858;2023-03-23T06:03:42;2.17;;;1.20;;
36189;SDS011;22232;50.914;13.858;2023-03-23T06:06:20;1.67;;;1.08;;
36189;SDS011;22232;50.914;13.858;2023-03-23T06:09:01;2.60;;;1.05;;
36189;SDS011;22232;50.914;13.858;2023-03-23T06:12:05;3.33;;;1.80;;
36189;SDS011;22232;50.914;13.858;2023-03-23T06:14:43;4.88;;;1.30;;
36189;SDS011;22232;50.914;13.858;2023-03-23T06:17:11;2.17;;;1.45;;
36189;SDS011;22232;50.914;13.858;2023-03-23T06:19:37;3.30;;;1.40;;
36189;SDS011;22232;50.914;13.858;2023-03-23T06:25:06;2.88;;;1.10;;
36189;SDS011;22232;50.914;13.858;2023-03-23T06:27:38;2.45;;;1.40;;
36189;SDS011;22232;50.914;13.858;2023-03-23T06:30:05;2.78;;;1.27;;
36189;SDS011;22232;50.914;13.858;2023-03-23T06:32:32;2.88;;;1.60;;
36189;SDS011;22232;50.914;13.858;2023-03-23T06:35:01;3.03;;;1.95;;
36189;SDS011;22232;50.914;13.858;2023-03-23T06:37:55;4.68;;;1.60;;
36189;SDS011;22232;50.914;13.858;2023-03-23T06:40:34;2.95;;;1.02;;
36189;SDS011;22232;50.914;13.858;2023-03-23T06:43:03;1.95;;;1.38;;
36189;SDS011;22232;50.914;13.858;2023-03-23T06:45:59;2.35;;;1.25;;
36189;SDS011;22232;50.914;13.858;2023-03-23T06:48:29;1.58;;;0.95;;
36189;SDS011;22232;50.914;13.858;2023-03-23T06:50:56;1.65;;;1.08;;
36189;SDS011;22232;50.914;13.858;2023-03-23T06:53:25;2.90;;;1.20;;
36189;SDS011;22232;50.914;13.858;2023-03-23T06:55:54;1.92;;;1.08;;
36189;SDS011;22232;50.914;13.858;2023-03-23T06:58:22;1.23;;;0.98;;
36189;SDS011;22232;50.914;13.858;2023-03-23T07:00:54;3.08;;;1.20;;
36189;SDS011;22232;50.914;13.858;2023-03-23T07:03:28;1.73;;;1.02;;
36189;SDS011;22232;50.914;13.858;2023-03-23T07:05:54;1.70;;;1.00;;
36189;SDS011;22232;50.914;13.858;2023-03-23T07:08:25;1.73;;;1.10;;
36189;SDS011;22232;50.914;13.858;2023-03-23T07:10:52;2.35;;;0.88;;
36189;SDS011;22232;50.914;13.858;2023-03-23T07:13:24;1.88;;;0.90;;
36189;SDS011;22232;50.914;13.858;2023-03-23T07:15:55;1.27;;;0.90;;
36189;SDS011;22232;50.914;13.858;2023-03-23T07:18:23;1.95;;;0.90;;
36189;SDS011;22232;50.914;13.858;2023-03-23T07:20:52;1.00;;;0.85;;
36189;SDS011;22232;50.914;13.858;2023-03-23T07:23:22;3.20;;;1.23;;
36189;SDS011;22232;50.914;13.858;2023-03-23T07:25:59;2.03;;;1.13;;
36189;SDS011;22232;50.914;13.858;2023-03-23T07:28:33;1.30;;;1.17;;
36189;SDS011;22232;50.914;13.858;2023-03-23T07:31:06;3.53;;;1.20;;
36189;SDS011;22232;50.914;13.858;2023-03-23T07:33:35;1.55;;;1.20;;
36189;SDS011;22232;50.914;13.858;2023-03-23T07:36:04;1.50;;;0.90;;
36189;SDS011;22232;50.914;13.858;2023-03-23T07:38:31;1.38;;;0.90;;
36189;SDS011;22232;50.914;13.858;2023-03-23T07:40:58;2.30;;;1.30;;
36189;SDS011;22232;50.914;13.858;2023-03-23T07:43:25;2.17;;;0.80;;
36189;SDS011;22232;50.914;13.858;2023-03-23T07:45:54;1.20;;;0.98;;
36189;SDS011;22232;50.914;13.858;2023-03-23T07:48:25;3.88;;;1.20;;
36189;SDS011;22232;50.914;13.858;2023-03-23T07:50:52;2.85;;;1.38;;
36189;SDS011;22232;50.914;13.858;2023-03-23T07:53:18;1.20;;;0.90;;
36189;SDS011;22232;50.914;13.858;2023-03-23T07:55:53;1.65;;;1.42;;
36189;SDS011;22232;50.914;13.858;2023-03-23T07:58:49;1.42;;;1.02;;
36189;SDS011;22232;50.914;13.858;2023-03-23T08:01:15;4.70;;;1.20;;
36189;SDS011;22232;50.914;13.858;2023-03-23T08:03:56;1.73;;;1.05;;
36189;SDS011;22232;50.914;13.858;2023-03-23T08:06:53;2.08;;;0.93;;
36189;SDS011;22232;50.914;13.858;2023-03-23T08:09:40;2.67;;;1.17;;
36189;SDS011;22232;50.914;13.858;2023-03-23T08:12:26;2.30;;;1.08;;
36189;SDS011;22232;50.914;13.858;2023-03-23T08:15:13;1.58;;;1.05;;
36189;SDS011;22232;50.914;13.858;2023-03-23T08:18:06;2.25;;;1.20;;
36189;SDS011;22232;50.914;13.858;2023-03-23T08:20:33;1.80;;;1.13;;
36189;SDS011;22232;50.914;13.858;2023-03-23T08:23:03;1.77;;;1.08;;
36189;SDS011;22232;50.914;13.858;2023-03-23T08:25:30;1.80;;;1.23;;
36189;SDS011;22232;50.914;13.858;2023-03-23T08:28:18;1.80;;;1.15;;
36189;SDS011;22232;50.914;13.858;2023-03-23T08:31:07;1.75;;;1.05;;
36189;SDS011;22232;50.914;13.858;2023-03-23T08:33:54;1.75;;;1.10;;
36189;SDS011;22232;50.914;13.858;2023-03-23T08:36:32;1.88;;;1.17;;
36189;SDS011;22232;50.914;13.858;2023-03-23T08:39:17;1.40;;;1.00;;
36189;SDS011;22232;50.914;13.858;2023-03-23T08:41:52;2.35;;;1.20;;
36189;SDS011;22232;50.914;13.858;2023-03-23T08:44:42;2.50;;;1.13;;
36189;SDS011;22232;50.914;13.858;2023-03-23T08:47:16;1.83;;;1.10;;
36189;SDS011;22232;50.914;13.858;2023-03-23T08:49:49;1.85;;;1.13;;
36189;SDS011;22232;50.914;13.858;2023-03-23T08:52:37;2.58;;;0.90;;
36189;SDS011;22232;50.914;13.858;2023-03-23T08:55:23;1.70;;;1.20;;
36189;SDS011;22232;50.914;13.858;2023-03-23T08:58:16;2.33;;;1.00;;
36189;SDS011;22232;50.914;13.858;2023-03-23T09:00:58;2.83;;;1.13;;
36189;SDS011;22232;50.914;13.858;2023-03-23T09:03:44;1.83;;;0.95;;
36189;SDS011;22232;50.914;13.858;2023-03-23T09:06:29;2.05;;;1.38;;
36189;SDS011;22232;50.914;13.858;2023-03-23T09:08:56;1.10;;;1.00;;
36189;SDS011;22232;50.914;13.858;2023-03-23T09:11:22;1.75;;;1.10;;
36189;SDS011;22232;50.914;13.858;2023-03-23T09:13:48;2.53;;;1.40;;
36189;SDS011;22232;50.914;13.858;2023-03-23T09:16:15;2.00;;;0.93;;
36189;SDS011;22232;50.914;13.858;2023-03-23T09:18:41;2.17;;;0.93;;
36189;SDS011;22232;50.914;13.858;2023-03-23T09:21:07;4.03;;;1.27;;
36189;SDS011;22232;50.914;13.858;2023-03-23T09:23:34;2.03;;;1.15;;
36189;SDS011;22232;50.914;13.858;2023-03-23T09:26:01;2.28;;;1.35;;
36189;SDS011;22232;50.914;13.858;2023-03-23T09:28:29;3.33;;;1.30;;
36189;SDS011;22232;50.914;13.858;2023-03-23T09:30:57;1.85;;;1.17;;
36189;SDS011;22232;50.914;13.858;2023-03-23T09:33:24;2.97;;;1.30;;
36189;SDS011;22232;50.914;13.858;2023-03-23T09:35:51;1.92;;;1.17;;
36189;SDS011;22232;50.914;13.858;2023-03-23T09:38:18;2.13;;;1.20;;
36189;SDS011;22232;50.914;13.858;2023-03-23T09:40:46;1.92;;;1.40;;
36189;SDS011;22232;50.914;13.858;2023-03-23T09:49:21;1.95;;;1.20;;
36189;SDS011;22232;50.914;13.858;2023-03-23T09:54:22;3.67;;;1.30;;
36189;SDS011;22232;50.914;13.858;2023-03-23T09:56:54;1.40;;;1.10;;
36189;SDS011;22232;50.914;13.858;2023-03-23T10:01:55;1.23;;;1.00;;
36189;SDS011;22232;50.914;13.858;2023-03-23T10:04:39;2.63;;;1.15;;
36189;SDS011;22232;50.914;13.858;2023-03-23T10:07:11;1.75;;;1.23;;
36189;SDS011;22232;50.914;13.858;2023-03-23T10:09:46;1.35;;;1.02;;
36189;SDS011;22232;50.914;13.858;2023-03-23T10:15:12;1.30;;;0.93;;
36189;SDS011;22232;50.914;13.858;2023-03-23T10:17:45;2.58;;;1.10;;
36189;SDS011;22232;50.914;13.858;2023-03-23T10:23:12;2.47;;;1.23;;
36189;SDS011;22232;50.914;13.858;2023-03-23T10:26:11;1.40;;;1.10;;
36189;SDS011;22232;50.914;13.858;2023-03-23T10:28:54;0.90;;;0.70;;
36189;SDS011;22232;50.914;13.858;2023-03-23T10:31:27;0.70;;;0.70;;
36189;SDS011;22232;50.914;13.858;2023-03-23T10:34:03;1.20;;;0.90;;
36189;SDS011;22232;50.914;13.858;2023-03-23T10:36:37;1.77;;;0.95;;
36189;SDS011;22232;50.914;13.858;2023-03-23T10:41:33;2.00;;;1.02;;
36189;SDS011;22232;50.914;13.858;2023-03-23T10:44:00;1.20;;;0.80;;
36189;SDS011;22232;50.914;13.858;2023-03-23T10:46:59;0.98;;;0.77;;
36189;SDS011;22232;50.914;13.858;2023-03-23T10:49:34;1.25;;;0.98;;
36189;SDS011;22232;50.914;13.858;2023-03-23T10:57:45;2.30;;;1.00;;
36189;SDS011;22232;50.914;13.858;2023-03-23T11:00:25;2.37;;;0.90;;
36189;SDS011;22232;50.914;13.858;2023-03-23T11:02:57;0.88;;;0.80;;
36189;SDS011;22232;50.914;13.858;2023-03-23T11:05:36;1.83;;;1.02;;
36189;SDS011;22232;50.914;13.858;2023-03-23T11:08:03;1.77;;;1.35;;
36189;SDS011;22232;50.914;13.858;2023-03-23T11:10:40;1.15;;;0.98;;
36189;SDS011;22232;50.914;13.858;2023-03-23T11:13:14;1.48;;;1.10;;
36189;SDS011;22232;50.914;13.858;2023-03-23T11:15:42;2.10;;;1.08;;
36189;SDS011;22232;50.914;13.858;2023-03-23T11:18:18;1.60;;;1.40;;
36189;SDS011;22232;50.914;13.858;2023-03-23T11:20:48;1.70;;;0.90;;
36189;SDS011;22232;50.914;13.858;2023-03-23T11:23:30;1.63;;;1.02;;
36189;SDS011;22232;50.914;13.858;2023-03-23T11:26:05;1.42;;;0.93;;
36189;SDS011;22232;50.914;13.858;2023-03-23T11:28:37;1.98;;;1.38;;
36189;SDS011;22232;50.914;13.858;2023-03-23T11:31:09;1.75;;;0.80;;
36189;SDS011;22232;50.914;13.858;2023-03-23T11:36:53;3.20;;;1.27;;
36189;SDS011;22232;50.914;13.858;2023-03-23T11:39:29;1.17;;;0.82;;
36189;SDS011;22232;50.914;13.858;2023-03-23T11:42:01;2.13;;;0.98;;
36189;SDS011;22232;50.914;13.858;2023-03-23T11:44:42;0.80;;;0.80;;
36189;SDS011;22232;50.914;13.858;2023-03-23T11:50:14;1.27;;;0.90;;
36189;SDS011;22232;50.914;13.858;2023-03-23T11:52:49;1.70;;;0.80;;
36189;SDS011;22232;50.914;13.858;2023-03-23T11:55:35;0.80;;;0.80;;
36189;SDS011;22232;50.914;13.858;2023-03-23T11:58:20;1.10;;;0.80;;
36189;SDS011;22232;50.914;13.858;2023-03-23T12:06:03;0.95;;;0.80;;
36189;SDS011;22232;50.914;13.858;2023-03-23T12:08:52;2.13;;;1.88;;
36189;SDS011;22232;50.914;13.858;2023-03-23T12:34:26;2.88;;;2.10;;
36189;SDS011;22232;50.914;13.858;2023-03-23T12:36:47;1.48;;;1.30;;
36189;SDS011;22232;50.914;13.858;2023-03-23T12:48:32;2.08;;;1.88;;
36189;SDS011;22232;50.914;13.858;2023-03-23T12:51:03;7.50;;;3.92;;
36189;SDS011;22232;50.914;13.858;2023-03-23T12:59:42;3.10;;;1.40;;
36189;SDS011;22232;50.914;13.858;2023-03-23T13:02:28;1.92;;;1.10;;
36189;SDS011;22232;50.914;13.858;2023-03-23T13:05:25;1.30;;;0.95;;
36189;SDS011;22232;50.914;13.858;2023-03-23T13:10:44;1.65;;;1.30;;
36189;SDS011;22232;50.914;13.858;2023-03-23T13:13:17;2.03;;;1.10;;
36189;SDS011;22232;50.914;13.858;2023-03-23T13:16:02;2.67;;;1.20;;
36189;SDS011;22232;50.914;13.858;2023-03-23T13:18:44;4.30;;;1.13;;
36189;SDS011;22232;50.914;13.858;2023-03-23T13:21:30;1.10;;;0.90;;
36189;SDS011;22232;50.914;13.858;2023-03-23T13:24:05;1.30;;;1.15;;
36189;SDS011;22232;50.914;13.858;2023-03-23T13:26:40;1.65;;;1.17;;
36189;SDS011;22232;50.914;13.858;2023-03-23T13:31:46;1.73;;;1.20;;
36189;SDS011;22232;50.914;13.858;2023-03-23T13:34:23;1.75;;;1.05;;
36189;SDS011;22232;50.914;13.858;2023-03-23T13:37:11;2.05;;;1.30;;
36189;SDS011;22232;50.914;13.858;2023-03-23T13:39:48;1.77;;;1.10;;
36189;SDS011;22232;50.914;13.858;2023-03-23T13:42:25;3.05;;;1.20;;
36189;SDS011;22232;50.914;13.858;2023-03-23T13:45:02;2.25;;;1.33;;
36189;SDS011;22232;50.914;13.858;2023-03-23T13:47:39;3.28;;;1.40;;
36189;SDS011;22232;50.914;13.858;2023-03-23T13:57:49;3.08;;;2.00;;
36189;SDS011;22232;50.914;13.858;2023-03-23T14:03:16;1.33;;;0.90;;
36189;SDS011;22232;50.914;13.858;2023-03-23T14:05:48;1.77;;;1.00;;
36189;SDS011;22232;50.914;13.858;2023-03-23T14:10:52;1.30;;;0.93;;
36189;SDS011;22232;50.914;13.858;2023-03-23T14:13:24;1.02;;;0.98;;
36189;SDS011;22232;50.914;13.858;2023-03-23T14:16:01;2.63;;;1.00;;
36189;SDS011;22232;50.914;13.858;2023-03-23T14:18:38;1.95;;;0.90;;
36189;SDS011;22232;50.914;13.858;2023-03-23T14:21:05;2.80;;;1.50;;
36189;SDS011;22232;50.914;13.858;2023-03-23T14:23:40;2.35;;;1.10;;
36189;SDS011;22232;50.914;13.858;2023-03-23T14:26:11;1.52;;;1.10;;
36189;SDS011;22232;50.914;13.858;2023-03-23T14:28:43;1.73;;;0.90;;
36189;SDS011;22232;50.914;13.858;2023-03-23T14:31:22;1.13;;;1.02;;
36189;SDS011;22232;50.914;13.858;2023-03-23T14:33:51;2.58;;;1.17;;
36189;SDS011;22232;50.914;13.858;2023-03-23T14:36:20;1.73;;;1.20;;
36189;SDS011;22232;50.914;13.858;2023-03-23T14:38:48;4.10;;;1.30;;
36189;SDS011;22232;50.914;13.858;2023-03-23T14:41:30;1.27;;;0.90;;
36189;SDS011;22232;50.914;13.858;2023-03-23T14:43:58;1.02;;;0.88;;
36189;SDS011;22232;50.914;13.858;2023-03-23T14:46:27;2.15;;;0.90;;
36189;SDS011;22232;50.914;13.858;2023-03-23T14:48:55;1.00;;;0.90;;
36189;SDS011;22232;50.914;13.858;2023-03-23T14:51:25;0.90;;;0.70;;
36189;SDS011;22232;50.914;13.858;2023-03-23T14:53:53;2.35;;;0.90;;
36189;SDS011;22232;50.914;13.858;2023-03-23T14:56:21;1.70;;;0.80;;
36189;SDS011;22232;50.914;13.858;2023-03-23T14:58:49;2.53;;;1.08;;
36189;SDS011;22232;50.914;13.858;2023-03-23T15:01:18;2.25;;;0.90;;
36189;SDS011;22232;50.914;13.858;2023-03-23T15:03:55;2.15;;;1.02;;
36189;SDS011;22232;50.914;13.858;2023-03-23T15:06:28;3.15;;;1.20;;
36189;SDS011;22232;50.914;13.858;2023-03-23T15:08:59;1.85;;;1.00;;
36189;SDS011;22232;50.914;13.858;2023-03-23T15:11:34;2.38;;;1.30;;
36189;SDS011;22232;50.914;13.858;2023-03-23T15:14:08;1.00;;;0.80;;
36189;SDS011;22232;50.914;13.858;2023-03-23T15:16:47;0.90;;;0.80;;
36189;SDS011;22232;50.914;13.858;2023-03-23T15:19:28;2.17;;;1.13;;
36189;SDS011;22232;50.914;13.858;2023-03-23T15:22:11;3.25;;;0.90;;
36189;SDS011;22232;50.914;13.858;2023-03-23T15:24:42;1.75;;;1.02;;
36189;SDS011;22232;50.914;13.858;2023-03-23T15:27:29;2.65;;;1.23;;
36189;SDS011;22232;50.914;13.858;2023-03-23T15:32:55;1.10;;;1.00;;
36189;SDS011;22232;50.914;13.858;2023-03-23T15:35:27;0.80;;;0.70;;
36189;SDS011;22232;50.914;13.858;2023-03-23T15:38:04;2.40;;;1.08;;
36189;SDS011;22232;50.914;13.858;2023-03-23T15:40:36;3.10;;;0.95;;
36189;SDS011;22232;50.914;13.858;2023-03-23T15:48:53;1.10;;;1.00;;
36189;SDS011;22232;50.914;13.858;2023-03-23T15:51:24;1.27;;;0.90;;
36189;SDS011;22232;50.914;13.858;2023-03-23T15:53:53;1.48;;;0.98;;
36189;SDS011;22232;50.914;13.858;2023-03-23T15:56:20;1.05;;;0.77;;
36189;SDS011;22232;50.914;13.858;2023-03-23T15:58:47;1.13;;;1.02;;
36189;SDS011;22232;50.914;13.858;2023-03-23T16:01:22;2.60;;;0.98;;
36189;SDS011;22232;50.914;13.858;2023-03-23T16:06:33;0.90;;;0.90;;
36189;SDS011;22232;50.914;13.858;2023-03-23T16:09:02;1.40;;;0.90;;
36189;SDS011;22232;50.914;13.858;2023-03-23T16:11:31;2.42;;;1.30;;
36189;SDS011;22232;50.914;13.858;2023-03-23T16:14:00;1.48;;;0.90;;
36189;SDS011;22232;50.914;13.858;2023-03-23T16:16:28;1.73;;;0.98;;
36189;SDS011;22232;50.914;13.858;2023-03-23T16:19:00;0.90;;;0.90;;
36189;SDS011;22232;50.914;13.858;2023-03-23T16:21:28;1.08;;;0.75;;
36189;SDS011;22232;50.914;13.858;2023-03-23T16:23:55;1.98;;;0.73;;
36189;SDS011;22232;50.914;13.858;2023-03-23T16:26:23;2.30;;;0.80;;
36189;SDS011;22232;50.914;13.858;2023-03-23T16:28:51;0.77;;;0.73;;
36189;SDS011;22232;50.914;13.858;2023-03-23T16:31:28;1.70;;;0.80;;
36189;SDS011;22232;50.914;13.858;2023-03-23T16:33:56;1.13;;;0.73;;
36189;SDS011;22232;50.914;13.858;2023-03-23T16:36:23;1.73;;;0.80;;
36189;SDS011;22232;50.914;13.858;2023-03-23T16:38:51;1.52;;;0.68;;
36189;SDS011;22232;50.914;13.858;2023-03-23T16:41:20;1.60;;;0.68;;
36189;SDS011;22232;50.914;13.858;2023-03-23T16:43:48;0.80;;;0.63;;
36189;SDS011;22232;50.914;13.858;2023-03-23T16:46:15;1.83;;;0.65;;
36189;SDS011;22232;50.914;13.858;2023-03-23T16:48:43;1.10;;;0.80;;
36189;SDS011;22232;50.914;13.858;2023-03-23T16:51:10;0.80;;;0.60;;
36189;SDS011;22232;50.914;13.858;2023-03-23T16:53:38;1.13;;;0.68;;
36189;SDS011;22232;50.914;13.858;2023-03-23T16:56:05;2.53;;;1.20;;
36189;SDS011;22232;50.914;13.858;2023-03-23T16:58:33;1.42;;;0.93;;
36189;SDS011;22232;50.914;13.858;2023-03-23T17:01:00;2.55;;;0.77;;
36189;SDS011;22232;50.914;13.858;2023-03-23T17:03:29;1.85;;;1.17;;
36189;SDS011;22232;50.914;13.858;2023-03-23T17:05:58;4.47;;;1.52;;
36189;SDS011;22232;50.914;13.858;2023-03-23T17:08:26;1.30;;;1.20;;
36189;SDS011;22232;50.914;13.858;2023-03-23T17:10:54;2.47;;;1.00;;
36189;SDS011;22232;50.914;13.858;2023-03-23T17:13:22;2.42;;;1.15;;
36189;SDS011;22232;50.914;13.858;2023-03-23T17:15:52;2.17;;;1.00;;
36189;SDS011;22232;50.914;13.858;2023-03-23T17:18:22;2.28;;;0.80;;